Watonga, Oklahoma
Current Conditions -  °F | °C
As of 4:15 PM on Sunday 23 Nov 2014 (Local Time) from KJWG Reporting Station
Light Rain Light Rain  
Wind Chill: 36°   Ceiling: 2800
Heat Index: 45°   Visibility: 7mi
Dew Point: 41°   Wind: 29mph
Humidity: 85%   Direction: 340°NNW
Pressure: 29.56"   Gusts: 39mph
Location:  35.84°N, 98.41°W
Report Text: KJWG 232215Z AUTO 34025G34KT 7SM -RA OVC028 07/05 A2956 RMK AO2 T00730050
Loading
Personal Weather Stations






























Interactive Weather Map New forecast layout! Learn more

10-Day Weather Forecast

Advertisements
Track Severe Weather on mobile